Churchland, North Carolina
Current Conditions -  °F | °C
As of 12:15 PM on Thursday 27 Nov 2014 (Local Time) from KEXX Reporting Station
Broken Clouds Broken Clouds  
Wind Chill: 43°   Ceiling: 3500
Heat Index: 46°   Visibility: 10mi
Dew Point: 36°   Wind: 5mph
Humidity: 70%   Direction: 340°NNW
Pressure: 30.09"   Gusts: NA
Location:  35.7974°N, 80.2541°W
Report Text: KEXX 271715Z AUTO 34004KT 10SM SCT026 BKN035 BKN050 08/02 A3009 RMK AO2 T00750023
Loading
Personal Weather Stations






























Interactive Weather Map New forecast layout! Learn more

10-Day Weather Forecast

Advertisements
Track Severe Weather on mobile